Time;durP1;ratioP1;P1;durP2;ratioP2;P2;SDS_P1;SDS_P2;PMS_P1;PMS_P2;Temp;Humidity;BMP_temperature;BMP_pressure;BME280_temperature;BME280_humidity;BME280_pressure;Samples;Min_cycle;Max_cycle;Signal;HPM_P1;HPM_P2
2022/11/26 00:01:13;;;;;;;28.75;12.30;;;;;;;;;;4917346;29;21052;-85
2022/11/26 00:03:39;;;;;;;27.33;11.85;;;;;;;;;;4932669;28;20043;-84
2022/11/26 00:06:07;;;;;;;27.95;12.60;;;;;;;;;;4935051;29;20067;-85
2022/11/26 00:08:36;;;;;;;30.42;12.35;;;;;;;;;;4919177;29;20122;-83
2022/11/26 00:11:02;;;;;;;27.73;12.32;;;;;;;;;;4919069;29;20568;-84
2022/11/26 00:13:31;;;;;;;30.15;12.60;;;;;;;;;;4921906;29;20043;-85
2022/11/26 00:15:56;;;;;;;27.65;12.43;;;;;;;;;;4929449;29;20047;-85
2022/11/26 00:18:22;;;;;;;31.10;11.95;;;;;;;;;;4919387;28;20450;-84
2022/11/26 00:20:50;;;;;;;26.60;11.55;;;;;;;;;;4918917;28;20057;-84
2022/11/26 00:23:20;;;;;;;28.30;12.10;;;;;;;;;;4919857;29;20558;-84
2022/11/26 00:25:57;;;;;;;32.55;13.15;;;;;;;;;;4935406;29;20432;-84
2022/11/26 00:28:31;;;;;;;35.10;13.07;;;;;;;;;;4929636;28;20388;-84
2022/11/26 00:30:58;;;;;;;28.10;12.55;;;;;;;;;;4931697;29;20063;-85
2022/11/26 00:33:25;;;;;;;32.03;12.30;;;;;;;;;;4917815;29;20043;-85
2022/11/26 00:35:55;;;;;;;33.92;12.90;;;;;;;;;;4931407;29;20044;-83
2022/11/26 00:38:20;;;;;;;31.65;12.93;;;;;;;;;;4903929;28;20042;-84
2022/11/26 00:40:49;;;;;;;31.33;11.98;;;;;;;;;;4917688;29;20047;-86
2022/11/26 00:43:15;;;;;;;28.70;12.00;;;;;;;;;;4915295;29;20092;-84
2022/11/26 00:45:46;;;;;;;35.67;13.40;;;;;;;;;;4912184;29;20451;-85
2022/11/26 00:48:11;;;;;;;34.80;13.18;;;;;;;;;;4920389;28;20532;-84
2022/11/26 00:50:39;;;;;;;34.25;13.23;;;;;;;;;;4917910;29;20047;-84
2022/11/26 00:53:05;;;;;;;29.17;11.70;;;;;;;;;;4918447;29;20040;-84
2022/11/26 00:55:32;;;;;;;31.98;12.82;;;;;;;;;;4930458;28;20043;-83
2022/11/26 00:57:58;;;;;;;29.95;12.90;;;;;;;;;;4917322;29;20582;-83
2022/11/26 01:00:26;;;;;;;28.30;11.77;;;;;;;;;;4933915;29;20036;-84
2022/11/26 01:02:51;;;;;;;;;;;;;;;;;;4936347;28;20751;-84
2022/11/26 01:05:18;;;;;;;32.95;12.52;;;;;;;;;;4948457;28;19930;-84
2022/11/26 01:07:44;;;;;;;28.10;12.55;;;;;;;;;;4919527;29;20150;-83
2022/11/26 01:10:23;;;;;;;31.52;12.55;;;;;;;;;;4917386;28;20040;-84
2022/11/26 01:12:49;;;;;;;33.47;12.93;;;;;;;;;;4918421;28;20364;-83
2022/11/26 01:15:14;;;;;;;31.40;12.70;;;;;;;;;;4918645;28;20563;-84
2022/11/26 01:17:40;;;;;;;31.05;12.90;;;;;;;;;;4916266;29;20130;-84
2022/11/26 01:20:25;;;;;;;28.65;12.13;;;;;;;;;;4904132;28;20090;-85
2022/11/26 01:22:51;;;;;;;26.67;11.85;;;;;;;;;;4931449;28;20039;-84
2022/11/26 01:25:17;;;;;;;33.15;12.20;;;;;;;;;;4928287;28;20038;-84
2022/11/26 01:27:43;;;;;;;31.23;12.00;;;;;;;;;;4936536;28;20407;-84
2022/11/26 01:30:31;;;;;;;36.97;12.68;;;;;;;;;;4915988;28;20048;-84
2022/11/26 01:32:56;;;;;;;;;;;;;;;;;;4917352;29;20032;-85
2022/11/26 01:35:21;;;;;;;43.63;12.68;;;;;;;;;;4937011;29;19937;-84
2022/11/26 01:37:48;;;;;;;33.35;13.55;;;;;;;;;;4903935;29;20138;-84
2022/11/26 01:40:25;;;;;;;29.67;12.65;;;;;;;;;;4930988;28;20032;-84
2022/11/26 01:42:58;;;;;;;;;;;;;;;;;;4929614;29;20484;-84
2022/11/26 01:45:24;;;;;;;30.35;12.15;;;;;;;;;;4933027;29;19986;-85
2022/11/26 01:47:49;;;;;;;30.52;12.38;;;;;;;;;;4915363;29;20131;-84
2022/11/26 01:50:27;;;;;;;28.77;12.52;;;;;;;;;;4913769;29;20035;-83
2022/11/26 01:53:11;;;;;;;36.45;13.40;;;;;;;;;;4929066;28;20396;-83
2022/11/26 01:55:49;;;;;;;32.28;12.68;;;;;;;;;;4932511;29;20044;-83
2022/11/26 01:58:20;;;;;;;33.40;12.65;;;;;;;;;;4930258;29;20035;-83
2022/11/26 02:00:47;;;;;;;35.30;13.50;;;;;;;;;;4916944;28;20099;-83
2022/11/26 02:03:12;;;;;;;32.30;12.68;;;;;;;;;;4917713;29;20031;-84
2022/11/26 02:05:47;;;;;;;35.30;12.98;;;;;;;;;;4917216;29;20043;-83
2022/11/26 02:08:13;;;;;;;33.92;13.75;;;;;;;;;;4933743;29;20496;-83
2022/11/26 02:10:38;;;;;;;39.90;14.32;;;;;;;;;;4932241;29;20047;-83
2022/11/26 02:13:04;;;;;;;32.50;13.00;;;;;;;;;;4915863;29;20031;-83
2022/11/26 02:15:37;;;;;;;35.35;13.48;;;;;;;;;;4915711;28;20461;-85
2022/11/26 02:18:11;;;;;;;34.70;13.88;;;;;;;;;;4913982;29;20038;-84
2022/11/26 02:20:48;;;;;;;39.28;13.13;;;;;;;;;;4926921;29;20067;-85
2022/11/26 02:23:28;;;;;;;43.97;14.30;;;;;;;;;;4931364;29;20676;-85
2022/11/26 02:26:34;;;;;;;37.22;13.82;;;;;;;;;;4916484;29;20046;-85
2022/11/26 02:29:09;;;;;;;36.20;13.65;;;;;;;;;;4931325;29;20066;-84
2022/11/26 02:31:50;;;;;;;42.00;14.27;;;;;;;;;;4931659;28;20412;-85
2022/11/26 02:34:49;;;;;;;40.10;13.45;;;;;;;;;;4926936;29;20501;-84
2022/11/26 02:37:19;;;;;;;46.65;15.13;;;;;;;;;;4934489;28;20046;-84
2022/11/26 02:39:45;;;;;;;45.72;16.48;;;;;;;;;;4931675;29;20530;-85
2022/11/26 02:42:31;;;;;;;45.63;16.70;;;;;;;;;;4930884;29;20031;-84
2022/11/26 02:45:06;;;;;;;44.00;15.70;;;;;;;;;;4933450;29;20559;-85
2022/11/26 02:47:52;;;;;;;40.95;17.23;;;;;;;;;;4928525;29;20176;-84
2022/11/26 02:50:26;;;;;;;42.10;16.17;;;;;;;;;;4885712;29;20505;-85
2022/11/26 02:52:54;;;;;;;50.08;16.40;;;;;;;;;;4870013;29;20033;-84
2022/11/26 02:55:21;;;;;;;52.58;17.38;;;;;;;;;;4879952;29;20096;-85
2022/11/26 02:57:47;;;;;;;;;;;;;;;;;;4881409;29;20318;-84
2022/11/26 03:00:15;;;;;;;48.83;16.20;;;;;;;;;;4874959;29;19915;-85
2022/11/26 03:02:44;;;;;;;47.90;17.52;;;;;;;;;;4894886;29;20036;-84
2022/11/26 03:05:11;;;;;;;56.60;17.42;;;;;;;;;;4893633;29;20136;-85
2022/11/26 03:07:37;;;;;;;47.15;17.83;;;;;;;;;;4895610;29;20032;-84
2022/11/26 03:10:05;;;;;;;43.08;16.20;;;;;;;;;;4870438;29;20044;-84
2022/11/26 03:12:31;;;;;;;49.20;18.17;;;;;;;;;;4877654;29;20036;-84
2022/11/26 03:14:56;;;;;;;44.85;16.90;;;;;;;;;;4909110;29;20041;-84
2022/11/26 03:17:22;;;;;;;47.58;17.98;;;;;;;;;;4893311;29;20039;-84
2022/11/26 03:19:47;;;;;;;47.35;18.33;;;;;;;;;;4881641;29;20474;-85
2022/11/26 03:22:16;;;;;;;47.50;17.42;;;;;;;;;;4895323;29;20039;-86
2022/11/26 03:24:42;;;;;;;51.13;17.40;;;;;;;;;;4878828;29;20041;-86
2022/11/26 03:27:07;;;;;;;50.35;17.40;;;;;;;;;;4917293;29;20039;-84
2022/11/26 03:29:33;;;;;;;49.25;18.58;;;;;;;;;;4922296;29;20048;-84
2022/11/26 03:31:58;;;;;;;51.35;18.30;;;;;;;;;;4926550;29;20044;-85
2022/11/26 03:34:24;;;;;;;50.22;17.35;;;;;;;;;;4912183;29;20063;-85
2022/11/26 03:36:50;;;;;;;50.92;17.65;;;;;;;;;;4926383;29;20044;-84
2022/11/26 03:39:15;;;;;;;47.63;18.25;;;;;;;;;;4927561;29;20134;-85
2022/11/26 03:41:43;;;;;;;45.95;16.77;;;;;;;;;;4916532;29;20177;-85
2022/11/26 03:44:12;;;;;;;47.00;17.15;;;;;;;;;;4916034;29;20046;-84
2022/11/26 03:46:38;;;;;;;50.55;18.02;;;;;;;;;;4916515;29;20086;-85
2022/11/26 03:49:03;;;;;;;50.60;16.77;;;;;;;;;;4916340;29;20074;-85
2022/11/26 03:51:28;;;;;;;49.90;18.13;;;;;;;;;;4915498;29;20422;-84
2022/11/26 03:53:54;;;;;;;48.95;17.50;;;;;;;;;;4921915;29;20837;-84
2022/11/26 03:56:19;;;;;;;51.30;17.90;;;;;;;;;;4916577;29;20886;-86
2022/11/26 03:58:45;;;;;;;50.70;17.85;;;;;;;;;;4906373;29;20135;-84
2022/11/26 04:01:11;;;;;;;54.22;18.48;;;;;;;;;;4934873;28;20058;-85
2022/11/26 04:03:37;;;;;;;51.92;18.92;;;;;;;;;;4917906;29;20046;-84
2022/11/26 04:06:03;;;;;;;49.65;17.25;;;;;;;;;;4917066;28;20035;-84
2022/11/26 04:08:31;;;;;;;52.33;18.17;;;;;;;;;;4918049;29;20039;-84
2022/11/26 04:10:57;;;;;;;47.50;16.90;;;;;;;;;;4904406;29;20036;-85
2022/11/26 04:13:23;;;;;;;47.95;17.67;;;;;;;;;;4919864;29;20039;-84
2022/11/26 04:15:48;;;;;;;56.95;18.77;;;;;;;;;;4936567;29;20043;-85
2022/11/26 04:18:14;;;;;;;48.58;16.70;;;;;;;;;;4919010;28;20036;-84
2022/11/26 04:20:39;;;;;;;47.83;17.50;;;;;;;;;;4930542;29;20040;-86
2022/11/26 04:23:05;;;;;;;50.78;17.67;;;;;;;;;;4932416;29;20032;-85
2022/11/26 04:25:30;;;;;;;43.13;18.13;;;;;;;;;;4918992;29;20046;-85
2022/11/26 04:27:56;;;;;;;50.83;17.55;;;;;;;;;;4919791;29;20656;-85
2022/11/26 04:30:22;;;;;;;56.60;17.90;;;;;;;;;;4916662;29;20036;-85
2022/11/26 04:32:47;;;;;;;52.47;18.00;;;;;;;;;;4915617;29;20051;-85
2022/11/26 04:35:12;;;;;;;52.58;18.48;;;;;;;;;;4921070;29;20034;-85
2022/11/26 04:37:43;;;;;;;55.20;19.02;;;;;;;;;;4917103;29;20063;-85
2022/11/26 04:40:10;;;;;;;47.85;17.08;;;;;;;;;;4903826;29;20062;-85
2022/11/26 04:42:35;;;;;;;48.45;17.35;;;;;;;;;;4930653;29;20518;-85
2022/11/26 04:45:01;;;;;;;47.97;17.45;;;;;;;;;;4917360;29;20039;-85
2022/11/26 04:47:26;;;;;;;41.33;17.25;;;;;;;;;;4916870;29;20032;-84
2022/11/26 04:49:51;;;;;;;43.78;16.95;;;;;;;;;;4918674;29;20058;-85
2022/11/26 04:52:17;;;;;;;49.17;17.02;;;;;;;;;;4929463;28;20043;-84
2022/11/26 04:54:42;;;;;;;38.72;15.85;;;;;;;;;;4922702;29;20040;-84
2022/11/26 04:57:08;;;;;;;43.83;16.75;;;;;;;;;;4930605;29;20078;-84
2022/11/26 04:59:33;;;;;;;45.95;16.60;;;;;;;;;;4920164;29;20507;-84
2022/11/26 05:01:59;;;;;;;41.88;16.20;;;;;;;;;;4915353;29;20042;-85
2022/11/26 05:04:26;;;;;;;39.60;15.60;;;;;;;;;;4920364;29;20043;-85
2022/11/26 05:06:51;;;;;;;45.57;15.50;;;;;;;;;;4915843;29;20127;-84
2022/11/26 05:09:17;;;;;;;43.00;15.40;;;;;;;;;;4918697;28;20869;-85
2022/11/26 05:11:42;;;;;;;42.47;16.15;;;;;;;;;;4944287;28;20047;-84
2022/11/26 05:14:08;;;;;;;43.10;15.55;;;;;;;;;;4916968;29;20116;-84
2022/11/26 05:16:33;;;;;;;42.28;15.38;;;;;;;;;;4918910;29;20095;-83
2022/11/26 05:18:58;;;;;;;40.17;14.93;;;;;;;;;;4904612;29;20043;-84
2022/11/26 05:21:24;;;;;;;35.33;14.50;;;;;;;;;;4919391;29;20980;-83
2022/11/26 05:23:49;;;;;;;35.50;14.18;;;;;;;;;;4924097;29;20094;-86
2022/11/26 05:26:17;;;;;;;37.20;14.00;;;;;;;;;;4927488;29;20062;-84
2022/11/26 05:28:43;;;;;;;35.85;14.68;;;;;;;;;;4924187;28;20045;-83
2022/11/26 05:31:08;;;;;;;41.65;14.73;;;;;;;;;;4910940;28;20051;-83
2022/11/26 05:33:34;;;;;;;32.97;13.90;;;;;;;;;;4919335;28;20055;-83
2022/11/26 05:35:59;;;;;;;32.90;13.57;;;;;;;;;;4930558;29;20086;-84
2022/11/26 05:38:25;;;;;;;37.85;13.70;;;;;;;;;;4923600;29;20075;-84
2022/11/26 05:40:50;;;;;;;34.03;13.07;;;;;;;;;;4919282;28;20044;-83
2022/11/26 05:43:16;;;;;;;31.02;12.80;;;;;;;;;;4919622;29;20044;-83
2022/11/26 05:45:42;;;;;;;33.75;13.50;;;;;;;;;;4917359;29;20047;-83
2022/11/26 05:48:07;;;;;;;38.70;12.75;;;;;;;;;;4936346;28;20042;-82
2022/11/26 05:50:33;;;;;;;33.42;12.35;;;;;;;;;;4915714;29;20052;-83
2022/11/26 05:52:58;;;;;;;32.88;12.30;;;;;;;;;;4929387;29;20415;-84
2022/11/26 05:55:24;;;;;;;31.92;12.52;;;;;;;;;;4932528;28;20039;-85
2022/11/26 05:57:49;;;;;;;28.38;11.65;;;;;;;;;;4919408;28;20042;-82
2022/11/26 06:00:18;;;;;;;26.88;11.85;;;;;;;;;;4933499;28;20523;-83
2022/11/26 06:02:43;;;;;;;31.77;11.38;;;;;;;;;;4928143;28;20039;-84
2022/11/26 06:05:09;;;;;;;25.33;11.18;;;;;;;;;;4930497;29;20090;-84
2022/11/26 06:07:35;;;;;;;26.38;11.15;;;;;;;;;;4918114;28;20044;-84
2022/11/26 06:10:00;;;;;;;30.05;11.57;;;;;;;;;;4914074;29;20039;-85
2022/11/26 06:12:26;;;;;;;25.85;11.35;;;;;;;;;;4919973;29;20042;-84
2022/11/26 06:14:51;;;;;;;27.00;11.10;;;;;;;;;;4902877;29;20439;-84
2022/11/26 06:17:16;;;;;;;32.90;11.60;;;;;;;;;;4927861;28;20195;-84
2022/11/26 06:19:42;;;;;;;27.00;11.18;;;;;;;;;;4919345;29;20040;-85
2022/11/26 06:22:07;;;;;;;33.38;12.38;;;;;;;;;;4931296;29;20159;-86
2022/11/26 06:24:33;;;;;;;30.15;11.23;;;;;;;;;;4919094;28;20043;-85
2022/11/26 06:26:58;;;;;;;24.98;9.82;;;;;;;;;;4935272;28;20034;-84
2022/11/26 06:29:24;;;;;;;28.20;10.50;;;;;;;;;;4915771;29;20067;-84
2022/11/26 06:31:49;;;;;;;22.48;9.68;;;;;;;;;;4930358;28;20400;-84
2022/11/26 06:34:15;;;;;;;26.20;9.90;;;;;;;;;;4930543;28;20388;-85
2022/11/26 06:36:41;;;;;;;20.80;9.48;;;;;;;;;;4927811;28;20031;-84
2022/11/26 06:39:06;;;;;;;23.13;9.65;;;;;;;;;;4928304;29;20114;-84
2022/11/26 06:41:32;;;;;;;18.55;8.77;;;;;;;;;;4930477;29;20047;-84
2022/11/26 06:43:58;;;;;;;22.50;8.60;;;;;;;;;;4933458;29;20043;-84
2022/11/26 06:46:28;;;;;;;23.88;9.38;;;;;;;;;;4910599;29;20047;-84
2022/11/26 06:48:56;;;;;;;21.98;8.93;;;;;;;;;;4930471;28;20555;-84
2022/11/26 06:51:26;;;;;;;23.92;8.75;;;;;;;;;;4930674;28;20484;-84
2022/11/26 06:53:55;;;;;;;18.20;8.07;;;;;;;;;;4932995;28;20556;-84
2022/11/26 06:56:21;;;;;;;16.77;7.70;;;;;;;;;;4944915;28;20047;-86
2022/11/26 06:58:49;;;;;;;20.58;8.73;;;;;;;;;;4913954;28;20063;-84
2022/11/26 07:01:17;;;;;;;22.30;8.55;;;;;;;;;;4920009;29;20035;-85
2022/11/26 07:03:42;;;;;;;;;;;;;;;;;;4929275;29;20035;-84
2022/11/26 07:06:19;;;;;;;20.90;8.52;;;;;;;;;;4928821;29;20362;-84
2022/11/26 07:08:45;;;;;;;22.00;8.63;;;;;;;;;;4942753;28;20040;-84
2022/11/26 07:11:11;;;;;;;22.35;8.50;;;;;;;;;;4918184;28;20087;-84
2022/11/26 07:13:37;;;;;;;22.60;8.85;;;;;;;;;;4915968;28;20487;-84
2022/11/26 07:16:03;;;;;;;19.10;8.38;;;;;;;;;;4915952;29;20040;-84
2022/11/26 07:18:29;;;;;;;23.17;9.45;;;;;;;;;;4913507;29;20447;-86
2022/11/26 07:20:54;;;;;;;21.98;8.50;;;;;;;;;;4928565;28;20032;-85
2022/11/26 07:23:20;;;;;;;25.70;8.70;;;;;;;;;;4930676;29;20882;-85
2022/11/26 07:25:45;;;;;;;25.65;9.07;;;;;;;;;;4916771;29;20120;-84
2022/11/26 07:28:11;;;;;;;22.90;7.78;;;;;;;;;;4934411;29;20143;-84
2022/11/26 07:30:37;;;;;;;19.80;7.72;;;;;;;;;;4931187;28;20546;-84
2022/11/26 07:33:03;;;;;;;23.95;7.63;;;;;;;;;;4932817;29;20055;-84
2022/11/26 07:35:29;;;;;;;22.73;8.52;;;;;;;;;;4921328;28;20055;-86
2022/11/26 07:37:55;;;;;;;22.67;8.50;;;;;;;;;;4934448;28;20542;-84
2022/11/26 07:40:20;;;;;;;19.20;8.50;;;;;;;;;;4921361;28;20039;-85
2022/11/26 07:42:45;;;;;;;20.48;7.20;;;;;;;;;;4920157;28;20567;-84
2022/11/26 07:45:13;;;;;;;19.73;7.65;;;;;;;;;;4935137;28;20035;-84
2022/11/26 07:47:39;;;;;;;;;;;;;;;;;;4937315;29;20048;-84
2022/11/26 07:50:05;;;;;;;20.15;7.05;;;;;;;;;;4939384;28;20298;-84
2022/11/26 07:52:30;;;;;;;17.75;6.85;;;;;;;;;;4917944;29;20027;-85
2022/11/26 07:54:55;;;;;;;22.00;8.02;;;;;;;;;;4917650;29;20127;-85
2022/11/26 07:57:21;;;;;;;18.55;7.65;;;;;;;;;;4916551;29;20077;-84
2022/11/26 07:59:47;;;;;;;18.33;7.22;;;;;;;;;;4935202;29;20039;-84
2022/11/26 08:02:13;;;;;;;23.23;7.63;;;;;;;;;;4915365;29;20047;-84
2022/11/26 08:04:39;;;;;;;16.88;6.97;;;;;;;;;;4917866;29;20043;-84
2022/11/26 08:07:05;;;;;;;16.20;6.65;;;;;;;;;;4918824;29;20035;-83
2022/11/26 08:09:30;;;;;;;16.92;6.72;;;;;;;;;;4916877;29;20047;-83
2022/11/26 08:11:58;;;;;;;18.25;7.00;;;;;;;;;;4915702;29;20047;-82
2022/11/26 08:14:24;;;;;;;19.35;6.57;;;;;;;;;;4924314;29;20495;-82
2022/11/26 08:16:49;;;;;;;16.77;6.40;;;;;;;;;;4921001;28;20107;-85
2022/11/26 08:19:15;;;;;;;18.17;5.93;;;;;;;;;;4920349;29;20086;-83
2022/11/26 08:21:40;;;;;;;18.83;5.80;;;;;;;;;;4923832;29;20043;-83
2022/11/26 08:24:07;;;;;;;18.02;6.32;;;;;;;;;;4918675;29;20062;-83
2022/11/26 08:26:38;;;;;;;12.27;5.70;;;;;;;;;;4945162;28;20040;-83
2022/11/26 08:29:03;;;;;;;14.15;5.38;;;;;;;;;;4936590;28;20543;-83
2022/11/26 08:31:29;;;;;;;15.75;5.85;;;;;;;;;;4918739;29;20068;-83
2022/11/26 08:34:02;;;;;;;19.50;5.90;;;;;;;;;;4930674;28;20039;-82
2022/11/26 08:36:32;;;;;;;14.07;5.47;;;;;;;;;;4931372;29;20047;-83
2022/11/26 08:38:58;;;;;;;12.68;6.15;;;;;;;;;;4920625;29;20043;-83
2022/11/26 08:41:24;;;;;;;14.73;5.95;;;;;;;;;;4930540;29;20040;-83
2022/11/26 08:43:49;;;;;;;11.77;5.22;;;;;;;;;;4919606;29;20040;-83
2022/11/26 08:46:15;;;;;;;14.30;5.03;;;;;;;;;;4928753;28;20047;-83
2022/11/26 08:48:41;;;;;;;16.83;5.55;;;;;;;;;;4918431;29;20079;-82
2022/11/26 08:51:09;;;;;;;13.50;6.07;;;;;;;;;;4917291;28;20559;-82
2022/11/26 08:53:55;;;;;;;12.07;5.05;;;;;;;;;;4903080;28;20051;-83
2022/11/26 08:56:21;;;;;;;16.33;5.50;;;;;;;;;;4871364;29;20084;-83
2022/11/26 08:58:47;;;;;;;15.43;4.97;;;;;;;;;;4872967;29;20069;-82
2022/11/26 09:01:12;;;;;;;15.07;4.78;;;;;;;;;;4845467;29;20125;-82
2022/11/26 09:03:38;;;;;;;15.38;5.40;;;;;;;;;;4876555;29;20114;-86
2022/11/26 09:06:06;;;;;;;16.88;5.55;;;;;;;;;;4876276;29;20037;-86
2022/11/26 09:08:43;;;;;;;14.77;5.40;;;;;;;;;;4872561;29;20040;-84
2022/11/26 09:11:10;;;;;;;14.20;4.63;;;;;;;;;;4855878;29;20116;-86
2022/11/26 09:13:37;;;;;;;15.10;4.68;;;;;;;;;;4851299;29;20051;-87
2022/11/26 09:16:55;;;;;;;12.70;5.20;;;;;;;;;;4831818;29;20429;-87
2022/11/26 09:20:15;;;;;;;18.15;4.93;;;;;;;;;;4841826;29;20786;-86
2022/11/26 09:23:39;;;;;;;17.73;4.72;;;;;;;;;;4832266;29;20047;-87
2022/11/26 09:26:20;;;;;;;;;;;;;;;;;;;;;
2022/11/26 09:28:48;;;;;;;13.70;5.13;;;;;;;;;;4837598;29;20041;-87
2022/11/26 09:34:41;;;;;;;11.13;4.70;;;;;;;;;;4890721;28;20156;-87
2022/11/26 09:37:19;;;;;;;12.48;5.03;;;;;;;;;;4857697;29;20173;-87
2022/11/26 09:39:45;;;;;;;11.88;4.88;;;;;;;;;;4896615;28;20134;-88
2022/11/26 09:42:36;;;;;;;10.25;4.80;;;;;;;;;;4911017;28;20134;-87
2022/11/26 09:46:15;;;;;;;10.80;4.75;;;;;;;;;;4914686;28;20035;-87
2022/11/26 09:48:42;;;;;;;11.18;4.13;;;;;;;;;;4819518;29;20048;-87
2022/11/26 09:51:23;;;;;;;;;;;;;;;;;;;;;
2022/11/26 09:54:09;;;;;;;9.88;4.60;;;;;;;;;;4887416;28;20283;-86
2022/11/26 09:56:36;;;;;;;16.67;4.55;;;;;;;;;;4914974;28;20035;-86
2022/11/26 09:59:04;;;;;;;11.18;4.35;;;;;;;;;;4932743;28;20046;-86
2022/11/26 10:01:31;;;;;;;12.70;3.83;;;;;;;;;;4914570;28;20612;-86
2022/11/26 10:04:02;;;;;;;10.23;3.97;;;;;;;;;;4868916;28;20047;-87
2022/11/26 10:06:40;;;;;;;11.68;3.95;;;;;;;;;;4917131;29;20126;-87
2022/11/26 10:09:12;;;;;;;;;;;;;;;;;;4940863;28;20047;-87
2022/11/26 10:12:21;;;;;;;11.45;3.78;;;;;;;;;;4897575;28;19941;-87
2022/11/26 10:15:13;;;;;;;11.05;3.70;;;;;;;;;;4945410;28;20046;-81
2022/11/26 10:17:44;;;;;;;8.00;3.38;;;;;;;;;;4930478;28;20103;-82
2022/11/26 10:20:31;;;;;;;11.15;3.58;;;;;;;;;;4930270;28;20042;-83
2022/11/26 10:23:20;;;;;;;;;;;;;;;;;;4945542;28;20094;-82
2022/11/26 10:25:57;;;;;;;8.48;3.97;;;;;;;;;;4924576;28;20362;-82
2022/11/26 10:28:25;;;;;;;11.25;3.70;;;;;;;;;;4933531;28;20519;-82
2022/11/26 10:30:58;;;;;;;15.23;4.63;;;;;;;;;;4945526;28;22116;-82
2022/11/26 10:33:27;;;;;;;10.70;4.68;;;;;;;;;;4931454;28;20031;-82
2022/11/26 10:35:52;;;;;;;14.20;4.47;;;;;;;;;;4931911;29;20841;-81
2022/11/26 10:38:20;;;;;;;12.73;4.47;;;;;;;;;;4927793;29;20070;-82
2022/11/26 10:40:46;;;;;;;13.32;4.30;;;;;;;;;;4915187;28;20098;-81
2022/11/26 10:43:19;;;;;;;11.60;4.45;;;;;;;;;;4929832;29;20440;-81
2022/11/26 10:45:46;;;;;;;12.73;4.22;;;;;;;;;;4927873;29;20499;-81
2022/11/26 10:48:18;;;;;;;12.13;4.78;;;;;;;;;;4914039;29;20046;-81
2022/11/26 10:50:54;;;;;;;21.27;4.88;;;;;;;;;;4918594;28;20447;-84
2022/11/26 10:53:22;;;;;;;12.68;5.07;;;;;;;;;;4930433;29;20035;-84
2022/11/26 10:55:47;;;;;;;;;;;;;;;;;;4927890;29;20047;-83
2022/11/26 10:58:21;;;;;;;14.57;4.97;;;;;;;;;;4925042;29;20366;-86
2022/11/26 11:00:53;;;;;;;17.85;5.85;;;;;;;;;;4944584;28;20521;-85
2022/11/26 11:03:22;;;;;;;12.48;5.05;;;;;;;;;;4919167;29;20051;-85
2022/11/26 11:05:47;;;;;;;13.25;5.65;;;;;;;;;;4946074;28;20471;-83
2022/11/26 11:08:30;;;;;;;14.73;4.55;;;;;;;;;;4935703;29;20056;-83
2022/11/26 11:10:59;;;;;;;16.40;5.65;;;;;;;;;;4929598;29;20918;-83
2022/11/26 11:13:38;;;;;;;15.48;5.38;;;;;;;;;;4928252;29;20042;-83
2022/11/26 11:16:03;;;;;;;11.63;5.18;;;;;;;;;;4930647;28;20035;-83
2022/11/26 11:18:29;;;;;;;16.90;5.78;;;;;;;;;;4933535;29;20923;-83
2022/11/26 11:21:01;;;;;;;17.42;6.20;;;;;;;;;;4917522;29;20543;-84
2022/11/26 11:23:30;;;;;;;13.32;5.22;;;;;;;;;;4949660;28;20078;-84
2022/11/26 11:26:00;;;;;;;11.23;5.30;;;;;;;;;;4911750;28;20583;-84
2022/11/26 11:28:31;;;;;;;16.33;6.00;;;;;;;;;;4932589;29;20084;-84
2022/11/26 11:31:11;;;;;;;13.40;5.18;;;;;;;;;;4933033;29;20035;-85
2022/11/26 11:33:37;;;;;;;14.60;5.60;;;;;;;;;;4943536;28;20183;-84
2022/11/26 11:36:14;;;;;;;13.43;5.13;;;;;;;;;;4946587;28;20043;-85
2022/11/26 11:39:00;;;;;;;14.68;5.78;;;;;;;;;;4947593;28;20428;-85
2022/11/26 11:41:28;;;;;;;11.85;5.32;;;;;;;;;;4931156;29;20087;-85
2022/11/26 11:44:14;;;;;;;13.40;5.35;;;;;;;;;;4948077;28;20045;-87
2022/11/26 11:47:03;;;;;;;16.20;5.88;;;;;;;;;;4932629;28;20407;-84
2022/11/26 11:49:41;;;;;;;15.77;5.70;;;;;;;;;;4920413;29;20044;-86
2022/11/26 11:52:21;;;;;;;12.77;5.45;;;;;;;;;;4935020;28;20067;-85
2022/11/26 11:54:55;;;;;;;10.90;4.90;;;;;;;;;;4936130;28;20053;-84
2022/11/26 11:57:34;;;;;;;14.02;5.15;;;;;;;;;;4934909;28;20035;-84
2022/11/26 12:00:11;;;;;;;16.17;5.38;;;;;;;;;;4941420;28;20138;-84
2022/11/26 12:03:07;;;;;;;17.98;5.68;;;;;;;;;;4945806;28;20377;-84
2022/11/26 12:05:38;;;;;;;13.85;5.18;;;;;;;;;;4948211;28;20671;-84
2022/11/26 12:08:28;;;;;;;14.63;4.68;;;;;;;;;;4933017;29;20544;-85
2022/11/26 12:11:12;;;;;;;12.05;4.55;;;;;;;;;;4948888;28;20047;-85
2022/11/26 12:13:52;;;;;;;10.32;4.63;;;;;;;;;;4945596;28;20409;-85
2022/11/26 12:16:24;;;;;;;9.40;4.30;;;;;;;;;;4928463;28;20074;-86
2022/11/26 12:19:02;;;;;;;10.75;4.57;;;;;;;;;;4905378;29;20040;-85
2022/11/26 12:21:36;;;;;;;10.85;4.03;;;;;;;;;;4928957;29;20043;-86
2022/11/26 12:24:16;;;;;;;11.32;3.65;;;;;;;;;;4922683;29;20551;-87
2022/11/26 12:26:54;;;;;;;10.45;4.03;;;;;;;;;;4942548;28;20054;-86
2022/11/26 12:29:55;;;;;;;11.18;3.67;;;;;;;;;;4910117;28;20534;-86
2022/11/26 12:32:26;;;;;;;9.57;3.05;;;;;;;;;;4928294;29;20072;-85
2022/11/26 12:34:57;;;;;;;8.35;3.50;;;;;;;;;;4926967;29;20052;-86
2022/11/26 12:37:29;;;;;;;8.15;2.65;;;;;;;;;;4907567;29;20071;-85
2022/11/26 12:40:14;;;;;;;8.23;3.17;;;;;;;;;;4921322;29;20447;-86
2022/11/26 12:42:49;;;;;;;8.75;2.83;;;;;;;;;;4928282;29;20036;-85
2022/11/26 12:45:32;;;;;;;8.77;2.75;;;;;;;;;;4916730;29;20889;-86
2022/11/26 12:48:03;;;;;;;8.38;2.63;;;;;;;;;;4922955;29;20049;-85
2022/11/26 12:50:37;;;;;;;8.02;2.88;;;;;;;;;;4926487;28;20469;-85
2022/11/26 12:53:09;;;;;;;6.88;2.72;;;;;;;;;;4930466;28;20530;-85
2022/11/26 12:55:45;;;;;;;5.60;2.47;;;;;;;;;;4945541;28;20118;-85
2022/11/26 12:58:20;;;;;;;8.68;3.00;;;;;;;;;;4916459;28;20130;-84
2022/11/26 13:00:48;;;;;;;12.93;3.50;;;;;;;;;;4946981;28;20387;-84
2022/11/26 13:03:14;;;;;;;;;;;;;;;;;;4946849;28;20522;-85
2022/11/26 13:05:58;;;;;;;6.55;2.67;;;;;;;;;;4933650;29;19919;-85
2022/11/26 13:08:44;;;;;;;5.70;2.53;;;;;;;;;;4942163;28;20027;-85
2022/11/26 13:11:40;;;;;;;10.68;3.10;;;;;;;;;;4929857;28;20047;-85
2022/11/26 13:14:08;;;;;;;10.70;3.17;;;;;;;;;;4914918;29;20709;-85
2022/11/26 13:16:39;;;;;;;12.90;3.92;;;;;;;;;;4932334;28;20059;-85
2022/11/26 13:19:14;;;;;;;14.05;4.15;;;;;;;;;;4930439;29;20099;-87
2022/11/26 13:21:49;;;;;;;13.48;3.72;;;;;;;;;;4929997;29;20503;-85
2022/11/26 13:24:36;;;;;;;12.10;4.28;;;;;;;;;;4930624;28;20039;-85
2022/11/26 13:27:23;;;;;;;10.25;4.05;;;;;;;;;;4930859;28;20554;-86
2022/11/26 13:30:07;;;;;;;13.23;5.20;;;;;;;;;;4947847;28;20143;-86
2022/11/26 13:32:36;;;;;;;9.05;4.50;;;;;;;;;;4932619;28;20426;-85
2022/11/26 13:35:35;;;;;;;17.17;5.40;;;;;;;;;;4932229;29;20105;-85
2022/11/26 13:38:06;;;;;;;13.20;4.60;;;;;;;;;;4937093;28;20039;-85
2022/11/26 13:40:56;;;;;;;16.30;4.60;;;;;;;;;;4944976;28;20165;-85
2022/11/26 13:43:24;;;;;;;15.32;4.68;;;;;;;;;;4947618;28;20530;-85
2022/11/26 13:46:14;;;;;;;16.00;4.80;;;;;;;;;;4931962;28;20043;-85
2022/11/26 13:48:59;;;;;;;13.88;4.80;;;;;;;;;;4931117;28;20484;-85
2022/11/26 13:51:30;;;;;;;16.35;4.75;;;;;;;;;;4914569;28;20047;-84
2022/11/26 13:54:08;;;;;;;15.15;4.93;;;;;;;;;;4919736;29;20065;-84
2022/11/26 13:56:35;;;;;;;12.93;4.70;;;;;;;;;;4932658;28;20043;-84
2022/11/26 13:59:05;;;;;;;13.93;5.13;;;;;;;;;;4930592;28;20040;-84
2022/11/26 14:01:34;;;;;;;14.82;5.20;;;;;;;;;;4946568;28;20036;-84
2022/11/26 14:04:02;;;;;;;12.75;4.15;;;;;;;;;;4915768;29;20297;-83
2022/11/26 14:06:30;;;;;;;15.82;5.05;;;;;;;;;;4915776;29;20448;-85
2022/11/26 14:08:56;;;;;;;13.20;4.88;;;;;;;;;;4911870;29;20114;-84
2022/11/26 14:11:53;;;;;;;18.15;4.55;;;;;;;;;;4900832;29;20071;-84
2022/11/26 14:14:25;;;;;;;11.43;4.57;;;;;;;;;;4905000;29;20056;-85
2022/11/26 14:17:03;;;;;;;14.43;4.80;;;;;;;;;;4929311;28;20138;-85
2022/11/26 14:19:43;;;;;;;13.43;4.55;;;;;;;;;;4928113;28;20066;-85
2022/11/26 14:22:14;;;;;;;14.52;4.55;;;;;;;;;;4942218;28;20442;-85
2022/11/26 14:24:49;;;;;;;12.32;4.78;;;;;;;;;;4946276;28;20044;-85
2022/11/26 14:27:18;;;;;;;11.85;4.32;;;;;;;;;;4930367;29;20028;-85
2022/11/26 14:29:45;;;;;;;10.15;4.40;;;;;;;;;;4929093;29;20047;-84
2022/11/26 14:32:14;;;;;;;12.98;4.97;;;;;;;;;;4917217;29;20488;-84
2022/11/26 14:34:44;;;;;;;15.77;4.80;;;;;;;;;;4913422;29;20047;-83
2022/11/26 14:37:18;;;;;;;10.80;4.07;;;;;;;;;;4932901;28;20070;-84
2022/11/26 14:39:43;;;;;;;12.10;4.53;;;;;;;;;;4914970;29;20038;-84
2022/11/26 14:42:14;;;;;;;13.75;4.80;;;;;;;;;;4920407;28;20395;-83
2022/11/26 14:44:40;;;;;;;11.73;4.65;;;;;;;;;;4933498;29;20035;-84
2022/11/26 14:47:19;;;;;;;14.35;5.20;;;;;;;;;;4920584;29;20079;-84
2022/11/26 14:49:53;;;;;;;13.80;4.50;;;;;;;;;;4930716;28;20644;-85
2022/11/26 14:52:32;;;;;;;14.85;5.15;;;;;;;;;;4911814;29;20075;-85
2022/11/26 14:55:11;;;;;;;16.13;4.88;;;;;;;;;;4930219;29;20071;-85
2022/11/26 14:57:39;;;;;;;15.07;4.35;;;;;;;;;;4913794;28;20079;-84